createdAt,value
2023-04-18T00:00:34.455Z,8.53
2023-04-18T00:01:38.754Z,8.54
2023-04-18T00:02:43.220Z,8.53
2023-04-18T00:03:46.751Z,8.51
2023-04-18T00:04:49.881Z,8.53
2023-04-18T00:05:52.795Z,8.54
2023-04-18T00:06:55.439Z,8.52
2023-04-18T00:07:58.102Z,8.50
2023-04-18T00:09:00.759Z,8.48
2023-04-18T00:10:05.238Z,8.50
2023-04-18T00:11:07.719Z,8.49
2023-04-18T00:12:10.736Z,8.49
2023-04-18T00:13:13.078Z,8.45
2023-04-18T00:14:16.095Z,8.46
2023-04-18T00:15:18.514Z,8.43
2023-04-18T00:16:23.339Z,8.49
2023-04-18T00:17:27.739Z,8.49
2023-04-18T00:18:30.294Z,8.48
2023-04-18T00:19:34.240Z,8.50
2023-04-18T00:20:38.396Z,8.51
2023-04-18T00:21:42.578Z,8.51
2023-04-18T00:22:46.064Z,8.47
2023-04-18T00:23:48.339Z,8.49
2023-04-18T00:24:51.772Z,8.53
2023-04-18T00:25:54.425Z,8.55
2023-04-18T00:26:57.044Z,8.49
2023-04-18T00:27:59.809Z,8.42
2023-04-18T00:29:03.506Z,8.43
2023-04-18T00:30:07.834Z,8.46
2023-04-18T00:31:12.025Z,8.51
2023-04-18T00:32:14.443Z,8.45
2023-04-18T00:33:17.655Z,8.48
2023-04-18T00:34:20.507Z,8.47
2023-04-18T00:35:23.203Z,8.45
2023-04-18T00:36:26.440Z,8.45
2023-04-18T00:37:29.197Z,8.43
2023-04-18T00:38:31.944Z,8.45
2023-04-18T00:39:36.993Z,8.43
2023-04-18T00:40:40.812Z,8.40
2023-04-18T00:41:43.168Z,8.40
2023-04-18T00:42:45.269Z,8.41
2023-04-18T00:43:49.890Z,8.39
2023-04-18T00:44:52.110Z,8.38
2023-04-18T00:46:00.350Z,8.36
2023-04-18T00:47:03.011Z,8.35
2023-04-18T00:48:06.158Z,8.31
2023-04-18T00:49:09.152Z,8.35
2023-04-18T00:50:12.879Z,8.33
2023-04-18T00:51:17.127Z,8.30
2023-04-18T00:52:20.075Z,8.27
2023-04-18T00:53:22.482Z,8.24
2023-04-18T00:54:26.840Z,8.19
2023-04-18T00:55:30.626Z,8.15
2023-04-18T00:56:34.823Z,8.15
2023-04-18T00:57:37.729Z,8.13
2023-04-18T00:58:41.501Z,8.11
2023-04-18T00:59:45.827Z,8.15
2023-04-18T01:00:48.644Z,8.19
2023-04-18T01:01:51.480Z,8.15
2023-04-18T01:02:54.943Z,8.13
2023-04-18T01:03:57.754Z,8.18
2023-04-18T01:05:01.199Z,8.12
2023-04-18T01:06:04.745Z,8.14
2023-04-18T01:07:09.113Z,8.13
2023-04-18T01:08:12.036Z,8.14
2023-04-18T01:09:15.497Z,8.18
2023-04-18T01:10:18.493Z,8.20
2023-04-18T01:11:20.901Z,8.21
2023-04-18T01:12:23.368Z,8.21
2023-04-18T01:13:25.768Z,8.22
2023-04-18T01:14:28.663Z,8.23
2023-04-18T01:15:30.832Z,8.22
2023-04-18T01:16:34.009Z,8.20
2023-04-18T01:17:40.020Z,8.20
2023-04-18T01:18:43.881Z,8.09
2023-04-18T01:19:46.331Z,8.05
2023-04-18T01:20:51.872Z,8.02
2023-04-18T01:21:55.163Z,8.03
2023-04-18T01:23:00.190Z,8.04
2023-04-18T01:24:11.525Z,8.03
2023-04-18T01:25:18.199Z,8.02
2023-04-18T01:26:21.479Z,8.03
2023-04-18T01:27:23.746Z,8.02
2023-04-18T01:28:27.088Z,7.96
2023-04-18T01:29:31.773Z,7.91
2023-04-18T01:30:34.610Z,7.90
2023-04-18T01:31:38.283Z,7.90
2023-04-18T01:32:40.795Z,7.82
2023-04-18T01:33:43.302Z,7.84
2023-04-18T01:34:45.431Z,7.84
2023-04-18T01:35:47.975Z,7.82
2023-04-18T01:36:50.313Z,7.84
2023-04-18T01:37:52.770Z,7.88
2023-04-18T01:38:55.813Z,7.92
2023-04-18T01:39:59.507Z,7.92
2023-04-18T01:41:02.468Z,7.93
2023-04-18T01:42:05.170Z,7.95
2023-04-18T01:43:07.625Z,7.94
2023-04-18T01:44:12.091Z,7.92
2023-04-18T01:45:16.517Z,7.93
2023-04-18T01:46:19.192Z,7.92
2023-04-18T01:47:21.589Z,7.94
2023-04-18T01:48:24.554Z,7.90
2023-04-18T01:49:27.050Z,7.91
2023-04-18T01:50:29.990Z,7.93
2023-04-18T01:51:32.332Z,7.92
2023-04-18T01:52:34.675Z,7.94
2023-04-18T01:53:36.830Z,7.89
2023-04-18T01:54:39.083Z,7.85
2023-04-18T01:55:41.543Z,7.84
2023-04-18T01:56:43.983Z,7.86
2023-04-18T01:57:46.312Z,7.88
2023-04-18T01:58:48.630Z,7.91
2023-04-18T01:59:51.202Z,7.91
2023-04-18T02:00:56.843Z,7.92
2023-04-18T02:01:59.265Z,7.95
2023-04-18T02:03:02.401Z,7.90
2023-04-18T02:04:05.333Z,7.90
2023-04-18T02:05:08.563Z,7.89
2023-04-18T02:06:13.396Z,7.88
2023-04-18T02:07:16.131Z,7.91
2023-04-18T02:08:18.438Z,7.91
2023-04-18T02:09:20.651Z,7.93
2023-04-18T02:10:24.015Z,7.94
2023-04-18T02:11:26.327Z,7.91
2023-04-18T02:12:28.638Z,7.91
2023-04-18T02:13:31.289Z,7.92
2023-04-18T02:14:35.824Z,7.92
2023-04-18T02:15:38.971Z,7.92
2023-04-18T02:16:41.455Z,7.90
2023-04-18T02:17:44.919Z,7.87
2023-04-18T02:18:47.626Z,7.83
2023-04-18T02:19:52.914Z,7.80
2023-04-18T02:20:55.444Z,7.83
2023-04-18T02:21:58.097Z,7.86
2023-04-18T02:23:01.228Z,7.82
2023-04-18T02:24:05.409Z,7.79
2023-04-18T02:25:08.409Z,7.81
2023-04-18T02:26:12.293Z,7.77
2023-04-18T02:27:14.688Z,7.80
2023-04-18T02:28:17.767Z,7.77
2023-04-18T02:29:20.457Z,7.78
2023-04-18T02:30:24.102Z,7.80
2023-04-18T02:31:26.660Z,7.80
2023-04-18T02:32:28.867Z,7.83
2023-04-18T02:33:31.287Z,7.81
2023-04-18T02:34:33.636Z,7.81
2023-04-18T02:35:37.881Z,7.81
2023-04-18T02:36:40.305Z,7.78
2023-04-18T02:37:42.736Z,7.76
2023-04-18T02:38:47.026Z,7.69
2023-04-18T02:39:51.666Z,7.68
2023-04-18T02:40:55.548Z,7.68
2023-04-18T02:41:58.199Z,7.73
2023-04-18T02:43:02.076Z,7.76
2023-04-18T02:44:06.580Z,7.70
2023-04-18T02:45:12.080Z,7.71
2023-04-18T02:46:15.498Z,7.67
2023-04-18T02:47:18.518Z,7.61
2023-04-18T02:48:22.886Z,7.62
2023-04-18T02:49:25.540Z,7.62
2023-04-18T02:50:28.882Z,7.64
2023-04-18T02:51:33.349Z,7.68
2023-04-18T02:52:37.353Z,7.71
2023-04-18T02:53:41.738Z,7.68
2023-04-18T02:54:44.636Z,7.71
2023-04-18T02:55:48.917Z,7.72
2023-04-18T02:56:53.815Z,7.71
2023-04-18T02:58:16.242Z,7.73
2023-04-18T02:59:20.444Z,7.74
2023-04-18T03:00:39.833Z,7.76
2023-04-18T03:01:46.596Z,7.77
2023-04-18T03:02:52.521Z,7.73
2023-04-18T03:04:02.742Z,7.75
2023-04-18T03:05:09.848Z,7.75
2023-04-18T03:06:12.606Z,7.76
2023-04-18T03:07:15.767Z,7.79
2023-04-18T03:08:18.723Z,7.81
2023-04-18T03:09:21.638Z,7.84
2023-04-18T03:10:25.926Z,7.79
2023-04-18T03:11:29.001Z,7.80
2023-04-18T03:12:31.901Z,7.82
2023-04-18T03:13:35.436Z,7.82
2023-04-18T03:14:38.553Z,7.81
2023-04-18T03:15:41.231Z,7.78
2023-04-18T03:16:44.608Z,7.78
2023-04-18T03:17:50.059Z,7.76
2023-04-18T03:18:53.111Z,7.78
2023-04-18T03:19:56.244Z,7.78
2023-04-18T03:20:59.085Z,7.79
2023-04-18T03:22:01.938Z,7.77
2023-04-18T03:23:06.355Z,7.79
2023-04-18T03:24:12.090Z,7.76
2023-04-18T03:25:14.866Z,7.79
2023-04-18T03:26:24.000Z,7.77
2023-04-18T03:27:27.979Z,7.77
2023-04-18T03:28:30.471Z,7.75
2023-04-18T03:29:33.927Z,7.80
2023-04-18T03:30:37.068Z,7.82
2023-04-18T03:31:40.899Z,7.85
2023-04-18T03:32:43.699Z,7.86
2023-04-18T03:33:46.521Z,7.88
2023-04-18T03:34:50.993Z,7.87
2023-04-18T03:35:53.604Z,7.89
2023-04-18T03:36:55.941Z,7.86
2023-04-18T03:37:58.918Z,7.80
2023-04-18T03:39:03.144Z,7.81
2023-04-18T03:40:06.590Z,7.84
2023-04-18T03:41:09.078Z,7.88
2023-04-18T03:42:12.465Z,7.92
2023-04-18T03:43:19.857Z,7.91
2023-04-18T03:44:23.362Z,7.91
2023-04-18T03:45:26.651Z,7.93
2023-04-18T03:46:29.516Z,7.89
2023-04-18T03:47:33.659Z,7.81
2023-04-18T03:48:36.746Z,7.79
2023-04-18T03:49:41.923Z,7.76
2023-04-18T03:50:44.536Z,7.75
2023-04-18T03:51:47.378Z,7.78
2023-04-18T03:52:50.408Z,7.72
2023-04-18T03:53:54.333Z,7.73
2023-04-18T03:55:00.677Z,7.72
2023-04-18T03:56:05.336Z,7.73
2023-04-18T03:57:19.111Z,7.74
2023-04-18T03:58:23.237Z,7.78
2023-04-18T03:59:26.365Z,7.76
2023-04-18T04:00:30.182Z,7.78
2023-04-18T04:01:34.903Z,7.80
2023-04-18T04:02:37.824Z,7.77
2023-04-18T04:03:40.753Z,7.76
2023-04-18T04:04:44.703Z,7.80
2023-04-18T04:05:47.546Z,7.82
2023-04-18T04:06:51.163Z,7.86
2023-04-18T04:07:54.510Z,7.92
2023-04-18T04:08:57.481Z,7.91
2023-04-18T04:10:00.814Z,7.92
2023-04-18T04:11:04.092Z,7.93
2023-04-18T04:12:06.721Z,7.93
2023-04-18T04:13:09.516Z,7.92
2023-04-18T04:14:13.858Z,7.88
2023-04-18T04:15:18.874Z,7.90
2023-04-18T04:16:29.598Z,7.90
2023-04-18T04:17:32.067Z,7.96
2023-04-18T04:18:34.894Z,7.96
2023-04-18T04:19:37.684Z,7.99
2023-04-18T04:20:41.840Z,8.00
2023-04-18T04:21:46.123Z,8.03
2023-04-18T04:22:51.853Z,7.95
2023-04-18T04:23:55.757Z,7.92
2023-04-18T04:25:03.970Z,7.96
2023-04-18T04:26:09.553Z,7.98
2023-04-18T04:27:14.760Z,8.00
2023-04-18T04:28:18.127Z,8.01
2023-04-18T04:29:26.848Z,8.04
2023-04-18T04:30:30.001Z,8.04
2023-04-18T04:31:32.865Z,8.01
2023-04-18T04:32:35.835Z,8.05
2023-04-18T04:33:38.957Z,8.06
2023-04-18T04:34:43.411Z,8.06
2023-04-18T04:35:47.538Z,8.09
2023-04-18T04:36:51.710Z,8.13
2023-04-18T04:37:54.152Z,8.13
2023-04-18T04:38:58.594Z,8.15
2023-04-18T04:40:08.678Z,8.19
2023-04-18T04:41:12.960Z,8.24
2023-04-18T04:42:15.321Z,8.26
2023-04-18T04:43:20.068Z,8.30
2023-04-18T04:44:24.997Z,8.30
2023-04-18T04:45:28.536Z,8.38
2023-04-18T04:46:31.770Z,8.39
2023-04-18T04:47:35.870Z,8.38
2023-04-18T04:48:38.623Z,8.34
2023-04-18T04:49:41.200Z,8.33
2023-04-18T04:50:48.191Z,8.33
2023-04-18T04:51:50.917Z,8.35
2023-04-18T04:52:53.368Z,8.37
2023-04-18T04:53:55.908Z,8.40
2023-04-18T04:54:58.520Z,8.43
2023-04-18T04:56:01.431Z,8.46
2023-04-18T04:57:04.573Z,8.48
2023-04-18T04:58:07.450Z,8.49
2023-04-18T04:59:14.327Z,8.47
2023-04-18T05:00:20.406Z,8.49
2023-04-18T05:01:23.392Z,8.51
2023-04-18T05:02:26.025Z,8.56
2023-04-18T05:03:28.724Z,8.61
2023-04-18T05:04:33.122Z,8.54
2023-04-18T05:05:36.180Z,8.54
2023-04-18T05:06:40.249Z,8.53
2023-04-18T05:07:43.901Z,8.57
2023-04-18T05:08:48.356Z,8.61
2023-04-18T05:09:52.450Z,8.66
2023-04-18T05:10:55.657Z,8.66
2023-04-18T05:11:58.049Z,8.74
2023-04-18T05:13:00.811Z,8.84
2023-04-18T05:14:03.467Z,8.92
2023-04-18T05:15:07.480Z,8.97
2023-04-18T05:16:11.132Z,9.01
2023-04-18T05:17:13.405Z,9.08
2023-04-18T05:18:16.839Z,9.14
2023-04-18T05:19:19.118Z,9.17
2023-04-18T05:20:22.194Z,9.27
2023-04-18T05:21:25.479Z,9.34
2023-04-18T05:22:28.093Z,9.40
2023-04-18T05:23:30.224Z,9.50
2023-04-18T05:24:32.742Z,9.51
2023-04-18T05:25:36.165Z,9.58
2023-04-18T05:26:39.289Z,9.43
2023-04-18T05:27:42.774Z,9.50
2023-04-18T05:28:45.717Z,9.55
2023-04-18T05:29:50.073Z,9.60
2023-04-18T05:30:53.708Z,9.58
2023-04-18T05:31:56.176Z,9.62
2023-04-18T05:32:58.446Z,9.65
2023-04-18T05:34:01.028Z,9.62
2023-04-18T05:35:04.311Z,9.67
2023-04-18T05:36:07.486Z,9.67
2023-04-18T05:37:10.305Z,9.77
2023-04-18T05:38:12.352Z,9.75
2023-04-18T05:39:14.898Z,9.81
2023-04-18T05:40:17.606Z,9.85
2023-04-18T05:41:19.927Z,9.91
2023-04-18T05:42:22.404Z,9.99
2023-04-18T05:43:24.856Z,9.97
2023-04-18T05:44:27.933Z,10.04
2023-04-18T05:45:30.441Z,10.12
2023-04-18T05:46:33.214Z,10.19
2023-04-18T05:47:35.567Z,10.25
2023-04-18T05:48:37.876Z,10.33
2023-04-18T05:49:41.020Z,10.35
2023-04-18T05:50:45.592Z,10.34
2023-04-18T05:51:52.292Z,10.36
2023-04-18T05:52:54.945Z,10.40
2023-04-18T05:53:57.468Z,10.38
2023-04-18T05:55:00.240Z,10.29
2023-04-18T05:56:03.128Z,10.29
2023-04-18T05:57:05.896Z,10.27
2023-04-18T05:58:08.137Z,10.20
2023-04-18T05:59:10.723Z,10.20
2023-04-18T06:00:14.790Z,10.27
2023-04-18T06:01:20.868Z,10.28
2023-04-18T06:02:23.420Z,10.32
2023-04-18T06:03:27.060Z,10.17
2023-04-18T06:04:30.994Z,10.18
2023-04-18T06:05:33.476Z,10.26
2023-04-18T06:06:36.672Z,10.29
2023-04-18T06:07:39.149Z,10.28
2023-04-18T06:08:41.488Z,10.30
2023-04-18T06:09:43.522Z,10.29
2023-04-18T06:10:45.751Z,10.39
2023-04-18T06:11:47.897Z,10.38
2023-04-18T06:12:50.788Z,10.37
2023-04-18T06:13:54.881Z,10.43
2023-04-18T06:14:57.296Z,10.45
2023-04-18T06:16:01.646Z,10.46
2023-04-18T06:17:06.457Z,10.52
2023-04-18T06:18:09.089Z,10.62
2023-04-18T06:19:11.419Z,10.57
2023-04-18T06:20:14.191Z,10.69
2023-04-18T06:21:16.932Z,10.76
2023-04-18T06:22:19.551Z,10.82
2023-04-18T06:23:21.791Z,10.94
2023-04-18T06:24:24.426Z,10.99
2023-04-18T06:25:27.277Z,10.98
2023-04-18T06:26:31.365Z,11.08
2023-04-18T06:27:33.856Z,11.21
2023-04-18T06:28:36.103Z,11.20
2023-04-18T06:29:40.436Z,11.12
2023-04-18T06:30:42.809Z,11.21
2023-04-18T06:31:46.093Z,11.27
2023-04-18T06:32:48.620Z,11.30
2023-04-18T06:33:51.333Z,11.39
2023-04-18T06:34:53.686Z,11.35
2023-04-18T06:35:56.576Z,11.42
2023-04-18T06:36:59.252Z,11.43
2023-04-18T06:38:01.434Z,11.43
2023-04-18T06:39:05.769Z,11.35
2023-04-18T06:40:10.662Z,11.39
2023-04-18T06:41:16.431Z,11.39
2023-04-18T06:42:21.602Z,11.41
2023-04-18T06:43:23.430Z,11.45
2023-04-18T06:44:26.107Z,11.46
2023-04-18T06:45:30.742Z,11.44
2023-04-18T06:46:34.229Z,11.39
2023-04-18T06:47:37.647Z,11.41
2023-04-18T06:48:39.881Z,11.43
2023-04-18T06:49:42.648Z,11.43
2023-04-18T06:50:45.595Z,11.40
2023-04-18T06:51:49.123Z,11.27
2023-04-18T06:52:51.502Z,11.33
2023-04-18T06:53:54.142Z,11.33
2023-04-18T06:54:56.773Z,11.41
2023-04-18T06:56:00.200Z,11.43
2023-04-18T06:57:03.203Z,11.42
2023-04-18T06:58:05.822Z,11.30
2023-04-18T06:59:08.461Z,11.36
2023-04-18T07:00:11.806Z,11.40
2023-04-18T07:01:14.265Z,11.35
2023-04-18T07:02:17.136Z,11.42
2023-04-18T07:03:19.473Z,11.49
2023-04-18T07:04:21.895Z,11.49
2023-04-18T07:05:24.404Z,11.49
2023-04-18T07:06:27.851Z,11.52
2023-04-18T07:07:31.710Z,11.47
2023-04-18T07:08:35.576Z,11.37
2023-04-18T07:09:37.820Z,11.38
2023-04-18T07:10:40.512Z,11.37
2023-04-18T07:11:43.350Z,11.43
2023-04-18T07:12:46.942Z,11.40
2023-04-18T07:13:50.352Z,11.47
2023-04-18T07:14:53.245Z,11.53
2023-04-18T07:15:56.208Z,11.54
2023-04-18T07:16:58.508Z,11.63
2023-04-18T07:18:01.177Z,11.73
2023-04-18T07:19:06.095Z,11.71
2023-04-18T07:20:12.227Z,11.78
2023-04-18T07:21:15.191Z,11.92
2023-04-18T07:22:18.688Z,12.07
2023-04-18T07:23:21.079Z,12.17
2023-04-18T07:24:23.300Z,12.29
2023-04-18T07:25:25.540Z,12.43
2023-04-18T07:26:29.066Z,12.51
2023-04-18T07:27:31.115Z,12.62
2023-04-18T07:28:33.261Z,12.61
2023-04-18T07:29:35.993Z,12.49
2023-04-18T07:30:39.020Z,12.36
2023-04-18T07:31:41.713Z,12.34
2023-04-18T07:32:44.334Z,12.26
2023-04-18T07:33:46.432Z,12.22
2023-04-18T07:34:48.671Z,12.21
2023-04-18T07:35:52.284Z,12.20
2023-04-18T07:36:57.301Z,12.17
2023-04-18T07:38:02.006Z,12.32
2023-04-18T07:39:05.455Z,12.46
2023-04-18T07:40:09.362Z,12.61
2023-04-18T07:41:12.186Z,12.69
2023-04-18T07:42:14.547Z,12.68
2023-04-18T07:43:18.109Z,12.73
2023-04-18T07:44:21.625Z,12.85
2023-04-18T07:45:24.788Z,12.93
2023-04-18T07:46:30.796Z,13.06
2023-04-18T07:47:33.948Z,13.10
2023-04-18T07:48:36.633Z,13.18
2023-04-18T07:49:39.173Z,13.26
2023-04-18T07:50:41.997Z,13.45
2023-04-18T07:51:44.553Z,13.45
2023-04-18T07:52:49.487Z,13.46
2023-04-18T07:53:52.508Z,13.43
2023-04-18T07:54:56.055Z,13.52
2023-04-18T07:55:59.408Z,13.60
2023-04-18T07:57:03.063Z,13.73
2023-04-18T07:58:06.039Z,13.78
2023-04-18T07:59:12.156Z,13.77
2023-04-18T08:00:16.086Z,13.81
2023-04-18T08:01:20.889Z,13.69
2023-04-18T08:02:23.186Z,13.75
2023-04-18T08:03:26.880Z,13.81
2023-04-18T08:04:30.557Z,13.88
2023-04-18T08:05:33.457Z,13.82
2023-04-18T08:06:36.051Z,13.85
2023-04-18T08:07:38.430Z,13.70
2023-04-18T08:08:41.754Z,13.54
2023-04-18T08:09:55.536Z,13.50
2023-04-18T08:10:58.264Z,13.49
2023-04-18T08:12:00.726Z,13.57
2023-04-18T08:13:03.268Z,13.57
2023-04-18T08:14:06.258Z,13.76
2023-04-18T08:15:09.271Z,13.76
2023-04-18T08:16:11.896Z,14.01
2023-04-18T08:17:14.583Z,14.17
2023-04-18T08:18:16.946Z,14.34
2023-04-18T08:19:19.773Z,14.43
2023-04-18T08:20:23.090Z,14.52
2023-04-18T08:21:26.680Z,14.53
2023-04-18T08:22:29.148Z,14.51
2023-04-18T08:23:31.925Z,14.53
2023-04-18T08:24:35.573Z,14.58
2023-04-18T08:25:38.386Z,14.63
2023-04-18T08:26:40.891Z,14.65
2023-04-18T08:27:44.735Z,14.72
2023-04-18T08:28:48.241Z,14.66
2023-04-18T08:29:50.657Z,14.74
2023-04-18T08:30:54.530Z,14.74
2023-04-18T08:31:57.059Z,14.72
2023-04-18T08:33:00.764Z,14.73
2023-04-18T08:34:05.070Z,14.78
2023-04-18T08:35:08.308Z,14.85
2023-04-18T08:36:11.499Z,14.92
2023-04-18T08:37:14.383Z,14.89
2023-04-18T08:38:18.290Z,14.95
2023-04-18T08:39:21.970Z,15.01
2023-04-18T08:40:25.340Z,15.09
2023-04-18T08:41:29.683Z,15.04
2023-04-18T08:42:32.687Z,14.81
2023-04-18T08:43:35.326Z,14.81
2023-04-18T08:44:37.609Z,14.62
2023-04-18T08:45:42.316Z,14.54
2023-04-18T08:46:45.600Z,14.56
2023-04-18T08:47:48.079Z,14.40
2023-04-18T08:48:51.223Z,14.43
2023-04-18T08:49:55.079Z,14.52
2023-04-18T08:50:58.999Z,14.52
2023-04-18T08:52:04.210Z,14.51
2023-04-18T08:53:07.302Z,14.61
2023-04-18T08:54:11.791Z,14.55
2023-04-18T08:55:15.313Z,14.51
2023-04-18T08:56:17.466Z,14.57
2023-04-18T08:57:26.339Z,14.60
2023-04-18T08:58:31.638Z,14.63
2023-04-18T08:59:36.918Z,14.64
2023-04-18T09:00:39.625Z,14.67
2023-04-18T09:01:56.432Z,14.72
2023-04-18T09:02:59.238Z,14.71
2023-04-18T09:04:02.218Z,14.64
2023-04-18T09:05:13.708Z,14.60
2023-04-18T09:06:18.554Z,14.60
2023-04-18T09:07:29.107Z,14.50
2023-04-18T09:08:32.776Z,14.44
2023-04-18T09:09:49.570Z,14.45
2023-04-18T09:10:53.208Z,14.48
2023-04-18T09:12:10.871Z,14.43
2023-04-18T09:13:13.709Z,14.41
2023-04-18T09:14:20.474Z,14.37
2023-04-18T09:15:26.600Z,14.26
2023-04-18T09:16:34.925Z,14.24
2023-04-18T09:17:45.468Z,14.22
2023-04-18T09:19:12.203Z,13.98
2023-04-18T09:20:37.003Z,14.00
2023-04-18T09:21:41.272Z,14.12
2023-04-18T09:22:49.857Z,14.25
2023-04-18T09:23:56.128Z,14.26
2023-04-18T09:24:58.578Z,14.34
2023-04-18T09:26:01.484Z,14.26
2023-04-18T09:27:08.469Z,14.33
2023-04-18T09:28:28.212Z,14.32
2023-04-18T09:29:49.328Z,14.31
2023-04-18T09:30:52.835Z,14.20
2023-04-18T09:32:00.097Z,14.25
2023-04-18T09:33:04.137Z,14.37
2023-04-18T09:34:10.116Z,14.48
2023-04-18T09:35:16.337Z,14.49
2023-04-18T09:36:24.364Z,14.61
2023-04-18T09:37:28.492Z,14.75
2023-04-18T09:38:41.327Z,14.78
2023-04-18T09:39:44.604Z,14.88
2023-04-18T09:40:47.452Z,14.96
2023-04-18T09:42:01.954Z,15.06
2023-04-18T09:44:30.311Z,15.16
2023-04-18T09:45:32.697Z,15.14
2023-04-18T09:46:36.413Z,15.09
2023-04-18T09:47:39.767Z,14.84
2023-04-18T09:48:42.115Z,14.96
2023-04-18T09:49:44.741Z,15.02
2023-04-18T09:50:49.029Z,15.01
2023-04-18T09:51:53.621Z,15.14
2023-04-18T09:52:58.452Z,15.29
2023-04-18T09:54:03.948Z,15.42
2023-04-18T09:55:09.280Z,15.40
2023-04-18T09:56:19.173Z,15.36
2023-04-18T09:57:24.467Z,15.45
2023-04-18T09:58:30.433Z,15.51
2023-04-18T09:59:39.736Z,15.59
2023-04-18T10:02:14.424Z,15.47
2023-04-18T10:03:22.502Z,15.38
2023-04-18T10:04:26.937Z,15.49
2023-04-18T10:05:33.938Z,15.57
2023-04-18T10:06:42.022Z,15.57
2023-04-18T10:07:46.837Z,15.43
2023-04-18T10:08:54.761Z,15.54
2023-04-18T10:09:57.151Z,15.59
2023-04-18T10:10:59.581Z,15.69
2023-04-18T10:12:03.028Z,15.59
2023-04-18T10:13:08.880Z,15.17
2023-04-18T10:14:16.295Z,15.17
2023-04-18T10:15:22.833Z,15.23
2023-04-18T10:16:26.920Z,15.30
2023-04-18T10:17:32.515Z,15.27
2023-04-18T10:18:35.980Z,15.22
2023-04-18T10:19:45.775Z,15.29
2023-04-18T10:20:49.047Z,15.22
2023-04-18T10:21:56.763Z,14.92
2023-04-18T10:23:00.359Z,14.98
2023-04-18T10:24:02.800Z,14.98
2023-04-18T10:25:06.288Z,14.83
2023-04-18T10:26:12.987Z,14.90
2023-04-18T10:27:18.254Z,14.69
2023-04-18T10:28:21.239Z,14.79
2023-04-18T10:29:27.250Z,14.73
2023-04-18T10:30:44.222Z,14.71
2023-04-18T10:31:47.308Z,14.62
2023-04-18T10:32:51.388Z,14.47
2023-04-18T10:35:03.496Z,14.61
2023-04-18T10:36:12.667Z,14.62
2023-04-18T10:37:17.557Z,14.41
2023-04-18T10:38:23.428Z,14.31
2023-04-18T10:39:29.360Z,14.17
2023-04-18T10:40:34.782Z,14.11
2023-04-18T10:41:40.711Z,14.17
2023-04-18T10:42:50.051Z,14.19
2023-04-18T10:44:10.728Z,14.32
2023-04-18T10:45:21.867Z,14.37
2023-04-18T10:46:32.361Z,14.54
2023-04-18T10:47:30.938Z,14.53
2023-04-18T10:49:40.030Z,14.56
2023-04-18T10:51:17.702Z,14.55
2023-04-18T10:52:20.061Z,14.53
2023-04-18T10:53:22.452Z,14.46
2023-04-18T10:54:45.199Z,14.56
2023-04-18T10:55:51.568Z,14.64
2023-04-18T10:56:55.963Z,14.70
2023-04-18T10:57:59.030Z,14.67
2023-04-18T10:59:02.966Z,14.74
2023-04-18T11:00:10.397Z,14.75
2023-04-18T11:01:15.710Z,14.73
2023-04-18T11:02:31.645Z,14.81
2023-04-18T11:03:35.241Z,14.82
2023-04-18T11:04:41.153Z,14.69
2023-04-18T11:05:44.174Z,14.66
2023-04-18T11:06:57.244Z,14.69
2023-04-18T11:08:00.660Z,14.68
2023-04-18T11:10:25.105Z,14.78
2023-04-18T11:11:27.740Z,14.66
2023-04-18T11:12:34.219Z,14.66
2023-04-18T11:13:55.941Z,14.66
2023-04-18T11:15:02.048Z,14.67
2023-04-18T11:16:04.922Z,14.58
2023-04-18T11:17:35.212Z,14.47
2023-04-18T11:18:41.447Z,14.44
2023-04-18T11:19:44.341Z,14.54
2023-04-18T11:20:49.711Z,14.34
2023-04-18T11:21:52.614Z,14.35
2023-04-18T11:22:58.091Z,14.37
2023-04-18T11:24:01.176Z,14.40
2023-04-18T11:25:10.501Z,14.41
2023-04-18T11:26:15.497Z,14.42
2023-04-18T11:27:17.862Z,14.36
2023-04-18T11:28:22.862Z,14.16
2023-04-18T11:29:25.849Z,14.17
2023-04-18T11:30:31.764Z,14.06
2023-04-18T11:31:34.430Z,13.97
2023-04-18T11:32:36.906Z,13.95
2023-04-18T11:33:41.766Z,13.97
2023-04-18T11:34:44.985Z,13.90
2023-04-18T11:35:47.336Z,13.86
2023-04-18T11:36:52.625Z,13.83
2023-04-18T11:37:55.545Z,13.75
2023-04-18T11:38:57.992Z,13.69
2023-04-18T11:40:00.315Z,13.69
2023-04-18T11:41:02.746Z,13.66
2023-04-18T11:42:06.422Z,13.66
2023-04-18T11:43:08.975Z,13.67
2023-04-18T11:44:12.296Z,13.73
2023-04-18T11:45:15.727Z,13.74
2023-04-18T11:46:18.172Z,13.76
2023-04-18T11:47:30.202Z,13.80
2023-04-18T11:48:37.743Z,13.81
2023-04-18T11:49:40.200Z,13.86
2023-04-18T11:50:43.739Z,13.89
2023-04-18T11:51:47.436Z,13.86
2023-04-18T11:52:52.247Z,13.80
2023-04-18T11:53:59.464Z,13.78
2023-04-18T11:55:17.117Z,13.78
2023-04-18T11:56:19.397Z,13.78
2023-04-18T11:57:27.649Z,13.77
2023-04-18T11:58:33.074Z,13.77
2023-04-18T11:59:35.764Z,13.83
2023-04-18T12:00:43.168Z,13.84
2023-04-18T12:01:45.589Z,13.83
2023-04-18T12:02:50.609Z,13.82
2023-04-18T12:04:02.310Z,13.72
2023-04-18T12:05:06.376Z,13.68
2023-04-18T12:06:10.579Z,13.70
2023-04-18T12:07:12.983Z,13.71
2023-04-18T12:08:20.390Z,13.70
2023-04-18T12:09:24.468Z,13.71
2023-04-18T12:10:29.227Z,13.73
2023-04-18T12:11:31.796Z,13.75
2023-04-18T12:12:35.469Z,13.77
2023-04-18T12:13:38.139Z,13.70
2023-04-18T12:14:40.673Z,13.71
2023-04-18T12:15:45.616Z,13.80
2023-04-18T12:16:51.351Z,13.87
2023-04-18T12:18:00.388Z,13.80
2023-04-18T12:19:03.401Z,13.79
2023-04-18T12:20:09.707Z,13.57
2023-04-18T12:21:13.873Z,13.34
2023-04-18T12:22:16.228Z,13.24
2023-04-18T12:23:37.642Z,13.17
2023-04-18T12:24:41.141Z,13.17
2023-04-18T12:25:44.133Z,13.13
2023-04-18T12:26:48.599Z,13.14
2023-04-18T12:28:15.189Z,13.20
2023-04-18T12:29:19.707Z,13.25
2023-04-18T12:30:25.923Z,13.30
2023-04-18T12:31:28.414Z,13.33
2023-04-18T12:32:30.512Z,13.28
2023-04-18T12:33:35.717Z,13.19
2023-04-18T12:34:38.100Z,13.14
2023-04-18T12:35:40.848Z,13.05
2023-04-18T12:36:43.396Z,12.92
2023-04-18T12:37:49.285Z,12.91
2023-04-18T12:38:51.903Z,12.82
2023-04-18T12:39:54.217Z,12.74
2023-04-18T12:40:56.661Z,12.65
2023-04-18T12:41:59.171Z,12.59
2023-04-18T12:43:03.551Z,12.49
2023-04-18T12:44:07.258Z,12.42
2023-04-18T12:45:11.572Z,12.43
2023-04-18T12:46:14.822Z,12.52
2023-04-18T12:47:17.192Z,12.56
2023-04-18T12:48:19.818Z,12.50
2023-04-18T12:49:22.355Z,12.42
2023-04-18T12:50:26.287Z,12.50
2023-04-18T12:51:28.771Z,12.51
2023-04-18T12:52:31.529Z,12.50
2023-04-18T12:53:34.121Z,12.52
2023-04-18T12:54:39.670Z,12.54
2023-04-18T12:55:42.307Z,12.52
2023-04-18T12:56:46.274Z,12.46
2023-04-18T12:57:51.554Z,12.47
2023-04-18T12:58:53.911Z,12.42
2023-04-18T12:59:56.182Z,12.27
2023-04-18T13:01:00.146Z,12.26
2023-04-18T13:02:02.727Z,12.22
2023-04-18T13:03:05.592Z,12.14
2023-04-18T13:04:12.496Z,12.05
2023-04-18T13:05:15.485Z,12.05
2023-04-18T13:06:18.309Z,12.09
2023-04-18T13:07:21.483Z,12.18
2023-04-18T13:08:24.498Z,12.24
2023-04-18T13:09:26.609Z,12.22
2023-04-18T13:10:29.180Z,12.24
2023-04-18T13:11:32.203Z,12.28
2023-04-18T13:12:34.867Z,12.33
2023-04-18T13:13:37.080Z,12.37
2023-04-18T13:14:39.167Z,12.38
2023-04-18T13:15:42.032Z,12.44
2023-04-18T13:16:47.046Z,12.34
2023-04-18T13:17:49.742Z,12.34
2023-04-18T13:18:52.441Z,12.22
2023-04-18T13:19:54.692Z,12.22
2023-04-18T13:20:59.326Z,12.13
2023-04-18T13:22:02.352Z,12.16
2023-04-18T13:23:05.028Z,12.11
2023-04-18T13:24:07.604Z,12.05
2023-04-18T13:25:12.084Z,12.07
2023-04-18T13:26:14.390Z,12.03
2023-04-18T13:27:19.284Z,11.88
2023-04-18T13:28:21.806Z,11.92
2023-04-18T13:29:24.762Z,11.91
2023-04-18T13:30:27.760Z,11.77
2023-04-18T13:31:31.638Z,11.67
2023-04-18T13:32:36.177Z,11.64
2023-04-18T13:33:40.026Z,11.57
2023-04-18T13:34:45.540Z,11.47
2023-04-18T13:35:47.926Z,11.40
2023-04-18T13:36:50.251Z,11.40
2023-04-18T13:37:53.006Z,11.31
2023-04-18T13:38:55.221Z,11.11
2023-04-18T13:39:57.964Z,11.17
2023-04-18T13:41:12.293Z,11.20
2023-04-18T13:42:08.430Z,11.16
2023-04-18T13:43:13.017Z,10.98
2023-04-18T13:44:15.825Z,10.94
2023-04-18T13:45:18.766Z,10.94
2023-04-18T13:46:22.875Z,10.91
2023-04-18T13:47:25.879Z,10.90
2023-04-18T13:48:28.684Z,10.85
2023-04-18T13:49:31.791Z,10.83
2023-04-18T13:50:34.178Z,10.84
2023-04-18T13:51:36.310Z,10.88
2023-04-18T13:52:39.112Z,10.92
2023-04-18T13:53:41.430Z,10.91
2023-04-18T13:54:44.375Z,10.88
2023-04-18T13:55:48.116Z,10.85
2023-04-18T13:56:52.137Z,10.80
2023-04-18T13:57:54.540Z,10.75
2023-04-18T13:58:56.743Z,10.65
2023-04-18T13:59:59.185Z,10.61
2023-04-18T14:01:02.807Z,10.62
2023-04-18T14:02:08.164Z,10.61
2023-04-18T14:03:11.029Z,10.63
2023-04-18T14:04:13.880Z,10.63
2023-04-18T14:05:16.345Z,10.56